Time,TemperatureF,DewpointF,PressureIn,WindDirection,WindDirectionDegrees,WindSpeedMPH,WindSpeedGustMPH,Humidity,HourlyPrecipIn,Conditions,Clouds,dailyrainin,SolarRadiationWatts/m^2,SoftwareType,DateUTC
2015-03-28 00:02:00,28.6,17.0,30.12,NW,319,3.0,5.0,62,0.00,,,0.00,0,weatherlink.com 1.10,2015-03-28 04:02:00,
2015-03-28 00:17:00,28.7,19.0,30.12,NW,309,1.0,8.0,66,0.00,,,0.00,0,weatherlink.com 1.10,2015-03-28 04:17:00,
2015-03-28 00:32:00,28.2,20.0,30.13,NNE,30,3.0,7.0,72,0.00,,,0.00,0,weatherlink.com 1.10,2015-03-28 04:32:00,
2015-03-28 00:47:00,27.4,20.0,30.13,NNW,341,2.0,7.0,75,0.00,,,0.00,0,weatherlink.com 1.10,2015-03-28 04:47:00,
2015-03-28 01:02:00,27.0,20.0,30.13,NW,320,0.0,6.0,76,0.00,,,0.00,0,weatherlink.com 1.10,2015-03-28 05:02:00,
2015-03-28 01:17:00,26.9,20.0,30.12,NNE,31,1.0,7.0,75,0.00,,,0.00,0,weatherlink.com 1.10,2015-03-28 05:17:00,
2015-03-28 01:32:00,26.8,20.0,30.12,North,11,2.0,8.0,76,0.00,,,0.00,0,weatherlink.com 1.10,2015-03-28 05:32:00,
2015-03-28 01:47:00,26.4,21.0,30.13,North,5,5.0,8.0,80,0.00,,,0.00,0,weatherlink.com 1.10,2015-03-28 05:47:00,
2015-03-28 02:02:00,26.1,21.0,30.13,NNW,327,2.0,4.0,80,0.00,,,0.00,0,weatherlink.com 1.10,2015-03-28 06:02:00,
2015-03-28 02:17:00,25.8,21.0,30.13,WNW,295,3.0,8.0,81,0.00,,,0.00,0,weatherlink.com 1.10,2015-03-28 06:17:00,
2015-03-28 02:32:00,25.7,21.0,30.13,NW,323,4.0,6.0,82,0.00,,,0.00,0,weatherlink.com 1.10,2015-03-28 06:32:00,
2015-03-28 02:47:00,25.6,21.0,30.14,North,355,0.0,5.0,82,0.00,,,0.00,0,weatherlink.com 1.10,2015-03-28 06:47:00,
2015-03-28 03:02:00,25.5,21.0,30.14,North,5,0.0,4.0,82,0.00,,,0.00,0,weatherlink.com 1.10,2015-03-28 07:02:00,
2015-03-28 03:17:00,25.2,20.0,30.14,North,5,0.0,3.0,81,0.00,,,0.00,0,weatherlink.com 1.10,2015-03-28 07:17:00,
2015-03-28 03:32:00,24.8,20.0,30.14,North,5,0.0,2.0,81,0.00,,,0.00,0,weatherlink.com 1.10,2015-03-28 07:32:00,
2015-03-28 03:47:00,24.3,19.0,30.14,North,355,0.0,3.0,81,0.00,,,0.00,0,weatherlink.com 1.10,2015-03-28 07:47:00,
2015-03-28 04:02:00,23.7,18.0,30.14,NNW,345,0.0,3.0,80,0.00,,,0.00,0,weatherlink.com 1.10,2015-03-28 08:02:00,
2015-03-28 04:17:00,23.2,17.0,30.14,NNW,345,0.0,1.0,78,0.00,,,0.00,0,weatherlink.com 1.10,2015-03-28 08:17:00,
2015-03-28 04:32:00,22.9,17.0,30.14,NNW,345,0.0,2.0,77,0.00,,,0.00,0,weatherlink.com 1.10,2015-03-28 08:32:00,
2015-03-28 04:48:00,22.5,16.0,30.14,NNW,345,0.0,1.0,77,0.00,,,0.00,0,weatherlink.com 1.10,2015-03-28 08:48:00,
2015-03-28 05:03:00,22.1,16.0,30.15,NNW,345,0.0,2.0,77,0.00,,,0.00,0,weatherlink.com 1.10,2015-03-28 09:03:00,
2015-03-28 05:18:00,21.7,16.0,30.16,NNW,346,1.0,3.0,78,0.00,,,0.00,0,weatherlink.com 1.10,2015-03-28 09:18:00,
2015-03-28 05:33:00,21.6,16.0,30.16,NNE,15,0.0,3.0,78,0.00,,,0.00,0,weatherlink.com 1.10,2015-03-28 09:33:00,
2015-03-28 05:48:00,21.5,16.0,30.17,NNW,340,0.0,3.0,78,0.00,,,0.00,0,weatherlink.com 1.10,2015-03-28 09:48:00,
2015-03-28 06:03:00,21.2,15.0,30.18,NNW,340,1.0,1.0,78,0.00,,,0.00,0,weatherlink.com 1.10,2015-03-28 10:03:00,
2015-03-28 06:18:00,21.0,15.0,30.18,NNW,340,1.0,2.0,79,0.00,,,0.00,0,weatherlink.com 1.10,2015-03-28 10:18:00,
2015-03-28 06:33:00,20.8,15.0,30.19,NNW,340,0.0,0.0,79,0.00,,,0.00,0,weatherlink.com 1.10,2015-03-28 10:33:00,
2015-03-28 06:48:00,20.5,15.0,30.20,NNW,343,0.0,1.0,80,0.00,,,0.00,0,weatherlink.com 1.10,2015-03-28 10:48:00,
2015-03-28 07:03:00,20.2,15.0,30.21,NNW,343,0.0,0.0,80,0.00,,,0.00,0,weatherlink.com 1.10,2015-03-28 11:03:00,
2015-03-28 07:18:00,19.8,15.0,30.21,NNW,343,0.0,0.0,80,0.00,,,0.00,0,weatherlink.com 1.10,2015-03-28 11:18:00,
2015-03-28 07:33:00,19.3,14.0,30.22,NNW,343,0.0,0.0,81,0.00,,,0.00,9,weatherlink.com 1.10,2015-03-28 11:33:00,
2015-03-28 07:48:00,19.0,14.0,30.22,NNW,343,0.0,1.0,82,0.00,,,0.00,26,weatherlink.com 1.10,2015-03-28 11:48:00,
2015-03-28 08:03:00,19.6,16.0,30.23,North,5,1.0,3.0,84,0.00,,,0.00,74,weatherlink.com 1.10,2015-03-28 12:03:00,
2015-03-28 08:18:00,22.1,18.0,30.24,NE,35,2.0,5.0,84,0.00,,,0.00,127,weatherlink.com 1.10,2015-03-28 12:18:00,
2015-03-28 08:34:00,23.2,18.0,30.25,NE,43,3.0,7.0,81,0.00,,,0.00,183,weatherlink.com 1.10,2015-03-28 12:34:00,
2015-03-28 08:48:00,23.4,18.0,30.26,NE,34,4.0,11.0,78,0.00,,,0.00,246,weatherlink.com 1.10,2015-03-28 12:48:00,
2015-03-28 09:03:00,23.9,18.0,30.26,ENE,65,4.0,8.0,78,0.00,,,0.00,83,weatherlink.com 1.10,2015-03-28 13:03:00,
2015-03-28 09:18:00,24.1,18.0,30.27,ENE,68,9.0,9.0,78,0.00,,,0.00,350,weatherlink.com 1.10,2015-03-28 13:18:00,
2015-03-28 09:33:00,23.8,18.0,30.28,ENE,76,5.0,10.0,77,0.00,,,0.00,459,weatherlink.com 1.10,2015-03-28 13:33:00,
2015-03-28 09:49:00,24.8,18.0,30.29,NNE,13,3.0,8.0,76,0.00,,,0.00,127,weatherlink.com 1.10,2015-03-28 13:49:00,
2015-03-28 10:04:00,25.2,18.0,30.29,NE,53,4.0,8.0,73,0.00,,,0.00,199,weatherlink.com 1.10,2015-03-28 14:04:00,
2015-03-28 10:19:00,25.4,17.0,30.29,ENE,62,4.0,9.0,70,0.00,,,0.00,202,weatherlink.com 1.10,2015-03-28 14:19:00,
2015-03-28 10:34:00,25.2,18.0,30.30,NNW,344,4.0,7.0,73,0.00,,,0.00,232,weatherlink.com 1.10,2015-03-28 14:34:00,
2015-03-28 10:49:00,26.3,18.0,30.30,North,5,2.0,8.0,70,0.00,,,0.00,265,weatherlink.com 1.10,2015-03-28 14:49:00,
2015-03-28 11:04:00,25.3,16.0,30.30,NW,306,3.0,8.0,69,0.00,,,0.00,265,weatherlink.com 1.10,2015-03-28 15:04:00,
2015-03-28 11:19:00,28.7,19.0,30.31,NE,53,9.0,10.0,67,0.00,,,0.00,376,weatherlink.com 1.10,2015-03-28 15:19:00,
2015-03-28 11:34:00,29.6,19.0,30.31,NE,53,8.0,12.0,65,0.00,,,0.00,909,weatherlink.com 1.10,2015-03-28 15:34:00,
2015-03-28 11:49:00,28.5,18.0,30.32,ENE,69,5.0,11.0,66,0.00,,,0.00,905,weatherlink.com 1.10,2015-03-28 15:49:00,
2015-03-28 12:04:00,29.2,18.0,30.32,ENE,57,5.0,11.0,62,0.00,,,0.00,947,weatherlink.com 1.10,2015-03-28 16:04:00,
2015-03-28 12:19:00,30.4,18.0,30.32,WSW,240,4.0,9.0,60,0.00,,,0.00,926,weatherlink.com 1.10,2015-03-28 16:19:00,
2015-03-28 12:34:00,30.7,19.0,30.32,WNW,291,4.0,9.0,61,0.00,,,0.00,413,weatherlink.com 1.10,2015-03-28 16:34:00,
2015-03-28 12:49:00,29.0,17.0,30.32,NW,312,7.0,7.0,61,0.00,,,0.00,308,weatherlink.com 1.10,2015-03-28 16:49:00,
2015-03-28 13:04:00,29.9,18.0,30.32,NNE,32,4.0,10.0,62,0.00,,,0.00,276,weatherlink.com 1.10,2015-03-28 17:04:00,
2015-03-28 13:19:00,30.4,17.0,30.32,NW,319,3.0,8.0,57,0.00,,,0.00,272,weatherlink.com 1.10,2015-03-28 17:19:00,
2015-03-28 13:34:00,30.4,16.0,30.32,ESE,103,9.0,9.0,55,0.00,,,0.00,965,weatherlink.com 1.10,2015-03-28 17:34:00,
2015-03-28 13:49:00,33.4,19.0,30.32,WNW,290,6.0,8.0,57,0.00,,,0.00,1037,weatherlink.com 1.10,2015-03-28 17:49:00,
2015-03-28 14:04:00,32.6,17.0,30.32,NNW,328,3.0,10.0,52,0.00,,,0.00,919,weatherlink.com 1.10,2015-03-28 18:04:00,
2015-03-28 14:19:00,32.4,15.0,30.31,NW,320,3.0,9.0,49,0.00,,,0.00,881,weatherlink.com 1.10,2015-03-28 18:19:00,